Plainview, Missouri
Current Conditions -  °F | °C
As of 11:55 PM on Friday 28 Nov 2014 (Local Time) from KIRK Reporting Station
Clear Clear  
Wind Chill:   Ceiling: Unl
Heat Index:   Visibility: 10mi
Dew Point:   Wind: 12mph
Humidity: 73%   Direction: 190°S
Pressure: 29.73"   Gusts: NA
Location:  39.9265°N, 92.4529°W
Report Text: KIRK 290555Z AUTO 19010KT 10SM CLR 07/02 A2973 RMK AO2 SLP073 T00670022 10072 20017 401061072 56017
Loading
Personal Weather Stations






























Interactive Weather Map New forecast layout! Learn more

10-Day Weather Forecast

Advertisements
Track Severe Weather on mobile